sensor_id;sensor_type;location;lat;lon;timestamp;temperature;humidity
20658;DHT22;10488;50.846;4.078;2022-09-06T00:01:16;18.00;99.90
20658;DHT22;10488;50.846;4.078;2022-09-06T00:03:43;18.00;99.90
20658;DHT22;10488;50.846;4.078;2022-09-06T00:06:12;18.00;99.90
20658;DHT22;10488;50.846;4.078;2022-09-06T00:08:39;18.00;99.90
20658;DHT22;10488;50.846;4.078;2022-09-06T00:11:05;18.00;99.90
20658;DHT22;10488;50.846;4.078;2022-09-06T00:13:31;18.00;99.90
20658;DHT22;10488;50.846;4.078;2022-09-06T00:16:06;18.00;99.90
20658;DHT22;10488;50.846;4.078;2022-09-06T00:18:32;18.00;99.90
20658;DHT22;10488;50.846;4.078;2022-09-06T00:20:58;18.00;99.90
20658;DHT22;10488;50.846;4.078;2022-09-06T00:23:24;18.00;99.90
20658;DHT22;10488;50.846;4.078;2022-09-06T00:25:49;17.90;99.90
20658;DHT22;10488;50.846;4.078;2022-09-06T00:28:15;17.80;99.90
20658;DHT22;10488;50.846;4.078;2022-09-06T00:30:41;17.80;99.90
20658;DHT22;10488;50.846;4.078;2022-09-06T00:33:06;17.80;99.90
20658;DHT22;10488;50.846;4.078;2022-09-06T00:35:32;17.80;99.90
20658;DHT22;10488;50.846;4.078;2022-09-06T00:37:59;17.70;99.90
20658;DHT22;10488;50.846;4.078;2022-09-06T00:40:26;17.60;99.90
20658;DHT22;10488;50.846;4.078;2022-09-06T00:42:54;17.60;99.90
20658;DHT22;10488;50.846;4.078;2022-09-06T00:45:20;17.60;99.90
20658;DHT22;10488;50.846;4.078;2022-09-06T00:47:47;17.60;99.90
20658;DHT22;10488;50.846;4.078;2022-09-06T00:50:15;17.60;99.90
20658;DHT22;10488;50.846;4.078;2022-09-06T00:52:42;17.60;99.90
20658;DHT22;10488;50.846;4.078;2022-09-06T00:55:09;17.60;99.90
20658;DHT22;10488;50.846;4.078;2022-09-06T00:57:35;17.60;99.90
20658;DHT22;10488;50.846;4.078;2022-09-06T01:00:04;17.50;99.90
20658;DHT22;10488;50.846;4.078;2022-09-06T01:02:30;17.50;99.90
20658;DHT22;10488;50.846;4.078;2022-09-06T01:04:56;17.50;99.90
20658;DHT22;10488;50.846;4.078;2022-09-06T01:07:31;17.50;99.90
20658;DHT22;10488;50.846;4.078;2022-09-06T01:24:11;17.50;99.90
20658;DHT22;10488;50.846;4.078;2022-09-06T01:29:46;17.40;99.90
20658;DHT22;10488;50.846;4.078;2022-09-06T01:32:50;17.20;99.90
20658;DHT22;10488;50.846;4.078;2022-09-06T01:35:43;17.20;99.90
20658;DHT22;10488;50.846;4.078;2022-09-06T01:38:13;17.20;99.90
20658;DHT22;10488;50.846;4.078;2022-09-06T01:40:40;17.00;99.90
20658;DHT22;10488;50.846;4.078;2022-09-06T01:43:09;16.90;99.90
20658;DHT22;10488;50.846;4.078;2022-09-06T01:54:31;16.90;99.90
20658;DHT22;10488;50.846;4.078;2022-09-06T02:04:54;16.70;99.90
20658;DHT22;10488;50.846;4.078;2022-09-06T02:07:24;16.60;99.90
20658;DHT22;10488;50.846;4.078;2022-09-06T02:09:59;16.60;99.90
20658;DHT22;10488;50.846;4.078;2022-09-06T02:12:28;16.60;99.90
20658;DHT22;10488;50.846;4.078;2022-09-06T02:15:03;16.50;99.90
20658;DHT22;10488;50.846;4.078;2022-09-06T02:17:33;16.50;99.90
20658;DHT22;10488;50.846;4.078;2022-09-06T02:20:20;16.60;99.90
20658;DHT22;10488;50.846;4.078;2022-09-06T02:22:48;16.50;99.90
20658;DHT22;10488;50.846;4.078;2022-09-06T02:25:22;16.50;99.90
20658;DHT22;10488;50.846;4.078;2022-09-06T02:27:49;16.40;99.90
20658;DHT22;10488;50.846;4.078;2022-09-06T02:30:15;16.40;99.90
20658;DHT22;10488;50.846;4.078;2022-09-06T02:33:00;16.40;99.90
20658;DHT22;10488;50.846;4.078;2022-09-06T02:35:27;16.50;99.90
20658;DHT22;10488;50.846;4.078;2022-09-06T02:37:53;16.50;99.90
20658;DHT22;10488;50.846;4.078;2022-09-06T02:40:20;16.50;99.90
20658;DHT22;10488;50.846;4.078;2022-09-06T02:42:46;16.30;99.90
20658;DHT22;10488;50.846;4.078;2022-09-06T02:45:12;16.30;99.90
20658;DHT22;10488;50.846;4.078;2022-09-06T02:47:38;16.10;99.90
20658;DHT22;10488;50.846;4.078;2022-09-06T02:50:04;16.20;99.90
20658;DHT22;10488;50.846;4.078;2022-09-06T02:52:29;16.10;99.90
20658;DHT22;10488;50.846;4.078;2022-09-06T02:54:55;16.10;99.90
20658;DHT22;10488;50.846;4.078;2022-09-06T02:57:21;16.10;99.90
20658;DHT22;10488;50.846;4.078;2022-09-06T02:59:47;16.00;99.90
20658;DHT22;10488;50.846;4.078;2022-09-06T03:02:14;16.00;99.90
20658;DHT22;10488;50.846;4.078;2022-09-06T03:04:40;16.10;99.90
20658;DHT22;10488;50.846;4.078;2022-09-06T03:07:05;16.00;99.90
20658;DHT22;10488;50.846;4.078;2022-09-06T03:09:31;16.10;99.90
20658;DHT22;10488;50.846;4.078;2022-09-06T03:11:57;16.20;99.90
20658;DHT22;10488;50.846;4.078;2022-09-06T03:14:22;16.30;99.90
20658;DHT22;10488;50.846;4.078;2022-09-06T03:16:48;16.20;99.90
20658;DHT22;10488;50.846;4.078;2022-09-06T03:19:14;16.30;99.90
20658;DHT22;10488;50.846;4.078;2022-09-06T03:21:39;16.20;99.90
20658;DHT22;10488;50.846;4.078;2022-09-06T03:24:05;16.20;99.90
20658;DHT22;10488;50.846;4.078;2022-09-06T03:26:31;16.30;99.90
20658;DHT22;10488;50.846;4.078;2022-09-06T03:28:56;16.40;99.90
20658;DHT22;10488;50.846;4.078;2022-09-06T03:31:22;16.40;99.90
20658;DHT22;10488;50.846;4.078;2022-09-06T03:33:47;16.50;99.90
20658;DHT22;10488;50.846;4.078;2022-09-06T03:36:13;16.50;99.90
20658;DHT22;10488;50.846;4.078;2022-09-06T03:38:40;16.60;99.90
20658;DHT22;10488;50.846;4.078;2022-09-06T03:41:05;16.60;99.90
20658;DHT22;10488;50.846;4.078;2022-09-06T03:43:31;16.60;99.90
20658;DHT22;10488;50.846;4.078;2022-09-06T03:45:57;16.60;99.90
20658;DHT22;10488;50.846;4.078;2022-09-06T03:48:25;16.60;99.90
20658;DHT22;10488;50.846;4.078;2022-09-06T03:50:53;16.60;99.90
20658;DHT22;10488;50.846;4.078;2022-09-06T03:53:19;16.60;99.90
20658;DHT22;10488;50.846;4.078;2022-09-06T03:55:51;16.70;99.90
20658;DHT22;10488;50.846;4.078;2022-09-06T03:58:19;16.70;99.90
20658;DHT22;10488;50.846;4.078;2022-09-06T04:00:45;16.80;99.90
20658;DHT22;10488;50.846;4.078;2022-09-06T04:03:11;16.80;99.90
20658;DHT22;10488;50.846;4.078;2022-09-06T04:05:36;16.70;99.90
20658;DHT22;10488;50.846;4.078;2022-09-06T04:08:02;16.70;99.90
20658;DHT22;10488;50.846;4.078;2022-09-06T04:10:30;16.80;99.90
20658;DHT22;10488;50.846;4.078;2022-09-06T04:12:56;16.90;99.90
20658;DHT22;10488;50.846;4.078;2022-09-06T04:15:21;16.90;99.90
20658;DHT22;10488;50.846;4.078;2022-09-06T04:17:47;16.90;99.90
20658;DHT22;10488;50.846;4.078;2022-09-06T04:20:13;16.90;99.90
20658;DHT22;10488;50.846;4.078;2022-09-06T04:22:38;16.90;99.90
20658;DHT22;10488;50.846;4.078;2022-09-06T04:25:05;16.90;99.90
20658;DHT22;10488;50.846;4.078;2022-09-06T04:27:31;16.90;99.90
20658;DHT22;10488;50.846;4.078;2022-09-06T04:29:57;16.90;99.90
20658;DHT22;10488;50.846;4.078;2022-09-06T04:32:23;16.90;99.90
20658;DHT22;10488;50.846;4.078;2022-09-06T04:34:48;16.90;99.90
20658;DHT22;10488;50.846;4.078;2022-09-06T04:37:15;16.80;99.90
20658;DHT22;10488;50.846;4.078;2022-09-06T04:39:47;16.80;99.90
20658;DHT22;10488;50.846;4.078;2022-09-06T04:42:14;16.80;99.90
20658;DHT22;10488;50.846;4.078;2022-09-06T04:44:40;16.70;99.90
20658;DHT22;10488;50.846;4.078;2022-09-06T04:47:11;16.60;99.90
20658;DHT22;10488;50.846;4.078;2022-09-06T04:49:42;16.60;99.90
20658;DHT22;10488;50.846;4.078;2022-09-06T04:52:09;16.60;99.90
20658;DHT22;10488;50.846;4.078;2022-09-06T04:54:35;16.60;99.90
20658;DHT22;10488;50.846;4.078;2022-09-06T04:57:00;16.70;99.90
20658;DHT22;10488;50.846;4.078;2022-09-06T04:59:26;16.70;99.90
20658;DHT22;10488;50.846;4.078;2022-09-06T05:01:51;16.80;99.90
20658;DHT22;10488;50.846;4.078;2022-09-06T05:04:17;16.80;99.90
20658;DHT22;10488;50.846;4.078;2022-09-06T05:06:43;16.70;99.90
20658;DHT22;10488;50.846;4.078;2022-09-06T05:09:09;16.70;99.90
20658;DHT22;10488;50.846;4.078;2022-09-06T05:11:34;16.80;99.90
20658;DHT22;10488;50.846;4.078;2022-09-06T05:14:00;16.80;99.90
20658;DHT22;10488;50.846;4.078;2022-09-06T05:16:26;16.80;99.90
20658;DHT22;10488;50.846;4.078;2022-09-06T05:18:51;16.80;99.90
20658;DHT22;10488;50.846;4.078;2022-09-06T05:21:17;16.70;99.90
20658;DHT22;10488;50.846;4.078;2022-09-06T05:23:43;16.70;99.90
20658;DHT22;10488;50.846;4.078;2022-09-06T05:26:09;16.70;99.90
20658;DHT22;10488;50.846;4.078;2022-09-06T05:28:34;16.70;99.90
20658;DHT22;10488;50.846;4.078;2022-09-06T05:31:24;16.80;99.90
20658;DHT22;10488;50.846;4.078;2022-09-06T05:33:52;16.90;99.90
20658;DHT22;10488;50.846;4.078;2022-09-06T05:36:18;16.90;99.90
20658;DHT22;10488;50.846;4.078;2022-09-06T05:38:44;16.90;99.90
20658;DHT22;10488;50.846;4.078;2022-09-06T05:41:10;17.00;99.90
20658;DHT22;10488;50.846;4.078;2022-09-06T05:43:36;17.00;99.90
20658;DHT22;10488;50.846;4.078;2022-09-06T05:46:01;17.00;99.90
20658;DHT22;10488;50.846;4.078;2022-09-06T05:48:27;17.20;99.90
20658;DHT22;10488;50.846;4.078;2022-09-06T05:51:19;17.60;99.90
20658;DHT22;10488;50.846;4.078;2022-09-06T05:53:45;18.30;99.90
20658;DHT22;10488;50.846;4.078;2022-09-06T05:56:12;18.60;99.90
20658;DHT22;10488;50.846;4.078;2022-09-06T05:58:38;18.90;99.90
20658;DHT22;10488;50.846;4.078;2022-09-06T06:01:14;19.20;99.90
20658;DHT22;10488;50.846;4.078;2022-09-06T06:03:41;19.70;99.90
20658;DHT22;10488;50.846;4.078;2022-09-06T06:06:07;20.10;99.90
20658;DHT22;10488;50.846;4.078;2022-09-06T06:08:34;20.60;99.90
20658;DHT22;10488;50.846;4.078;2022-09-06T06:11:00;21.10;99.90
20658;DHT22;10488;50.846;4.078;2022-09-06T06:13:27;21.40;99.90
20658;DHT22;10488;50.846;4.078;2022-09-06T06:15:55;21.50;99.90
20658;DHT22;10488;50.846;4.078;2022-09-06T06:18:21;21.70;99.90
20658;DHT22;10488;50.846;4.078;2022-09-06T06:20:46;22.00;99.90
20658;DHT22;10488;50.846;4.078;2022-09-06T06:23:14;21.90;99.90
20658;DHT22;10488;50.846;4.078;2022-09-06T06:25:39;22.70;99.90
20658;DHT22;10488;50.846;4.078;2022-09-06T06:28:05;23.20;99.90
20658;DHT22;10488;50.846;4.078;2022-09-06T06:30:30;23.20;99.90
20658;DHT22;10488;50.846;4.078;2022-09-06T06:32:56;23.00;99.90
20658;DHT22;10488;50.846;4.078;2022-09-06T06:35:23;23.40;99.90
20658;DHT22;10488;50.846;4.078;2022-09-06T06:37:49;23.00;99.90
20658;DHT22;10488;50.846;4.078;2022-09-06T06:40:15;23.20;99.90
20658;DHT22;10488;50.846;4.078;2022-09-06T06:42:40;23.30;99.90
20658;DHT22;10488;50.846;4.078;2022-09-06T06:45:06;23.00;99.90
20658;DHT22;10488;50.846;4.078;2022-09-06T06:47:32;23.20;99.90
20658;DHT22;10488;50.846;4.078;2022-09-06T06:49:58;23.40;99.90
20658;DHT22;10488;50.846;4.078;2022-09-06T06:52:23;23.40;99.90
20658;DHT22;10488;50.846;4.078;2022-09-06T06:54:50;23.20;99.90
20658;DHT22;10488;50.846;4.078;2022-09-06T06:57:15;23.30;99.90
20658;DHT22;10488;50.846;4.078;2022-09-06T06:59:41;23.70;99.90
20658;DHT22;10488;50.846;4.078;2022-09-06T07:02:07;23.90;99.90
20658;DHT22;10488;50.846;4.078;2022-09-06T07:04:32;24.00;99.90
20658;DHT22;10488;50.846;4.078;2022-09-06T07:06:58;23.40;99.90
20658;DHT22;10488;50.846;4.078;2022-09-06T07:09:24;23.00;99.90
20658;DHT22;10488;50.846;4.078;2022-09-06T07:11:50;23.40;99.90
20658;DHT22;10488;50.846;4.078;2022-09-06T07:14:18;23.40;99.90
20658;DHT22;10488;50.846;4.078;2022-09-06T07:16:44;23.70;99.90
20658;DHT22;10488;50.846;4.078;2022-09-06T07:19:10;23.90;99.90
20658;DHT22;10488;50.846;4.078;2022-09-06T07:21:35;24.30;99.90
20658;DHT22;10488;50.846;4.078;2022-09-06T07:24:02;24.00;99.90
20658;DHT22;10488;50.846;4.078;2022-09-06T07:26:29;24.30;99.90
20658;DHT22;10488;50.846;4.078;2022-09-06T07:28:58;24.40;99.90
20658;DHT22;10488;50.846;4.078;2022-09-06T07:31:25;23.90;99.90
20658;DHT22;10488;50.846;4.078;2022-09-06T07:33:51;23.90;99.90
20658;DHT22;10488;50.846;4.078;2022-09-06T07:36:17;23.90;99.90
20658;DHT22;10488;50.846;4.078;2022-09-06T07:38:47;23.80;99.90
20658;DHT22;10488;50.846;4.078;2022-09-06T07:41:14;23.90;99.90
20658;DHT22;10488;50.846;4.078;2022-09-06T07:43:39;24.10;99.90
20658;DHT22;10488;50.846;4.078;2022-09-06T07:46:07;23.60;99.90
20658;DHT22;10488;50.846;4.078;2022-09-06T07:48:35;23.90;99.90
20658;DHT22;10488;50.846;4.078;2022-09-06T07:51:06;24.30;99.90
20658;DHT22;10488;50.846;4.078;2022-09-06T07:53:33;24.60;99.90
20658;DHT22;10488;50.846;4.078;2022-09-06T07:56:00;24.50;99.90
20658;DHT22;10488;50.846;4.078;2022-09-06T07:58:28;24.10;99.90
20658;DHT22;10488;50.846;4.078;2022-09-06T08:04:16;24.70;99.90
20658;DHT22;10488;50.846;4.078;2022-09-06T08:06:46;24.20;99.90
20658;DHT22;10488;50.846;4.078;2022-09-06T08:09:16;24.00;99.90
20658;DHT22;10488;50.846;4.078;2022-09-06T08:11:42;24.20;99.90
20658;DHT22;10488;50.846;4.078;2022-09-06T08:14:08;24.30;99.90
20658;DHT22;10488;50.846;4.078;2022-09-06T08:16:35;24.00;99.90
20658;DHT22;10488;50.846;4.078;2022-09-06T08:19:04;24.10;99.90
20658;DHT22;10488;50.846;4.078;2022-09-06T08:21:31;24.30;99.90
20658;DHT22;10488;50.846;4.078;2022-09-06T08:23:59;24.00;99.90
20658;DHT22;10488;50.846;4.078;2022-09-06T08:26:26;24.00;99.90
20658;DHT22;10488;50.846;4.078;2022-09-06T08:28:54;24.10;99.90
20658;DHT22;10488;50.846;4.078;2022-09-06T08:31:20;24.30;99.90
20658;DHT22;10488;50.846;4.078;2022-09-06T08:33:46;24.90;99.90
20658;DHT22;10488;50.846;4.078;2022-09-06T08:36:12;25.00;99.90
20658;DHT22;10488;50.846;4.078;2022-09-06T08:38:38;24.80;99.90
20658;DHT22;10488;50.846;4.078;2022-09-06T08:43:35;25.00;99.90
20658;DHT22;10488;50.846;4.078;2022-09-06T08:46:02;25.00;99.90
20658;DHT22;10488;50.846;4.078;2022-09-06T08:48:33;25.20;99.90
20658;DHT22;10488;50.846;4.078;2022-09-06T08:53:30;24.70;99.90
20658;DHT22;10488;50.846;4.078;2022-09-06T08:56:10;24.40;99.90
20658;DHT22;10488;50.846;4.078;2022-09-06T09:01:36;25.10;99.90
20658;DHT22;10488;50.846;4.078;2022-09-06T09:04:13;25.20;99.90
20658;DHT22;10488;50.846;4.078;2022-09-06T09:06:39;25.20;99.90
20658;DHT22;10488;50.846;4.078;2022-09-06T09:09:07;24.90;99.90
20658;DHT22;10488;50.846;4.078;2022-09-06T09:11:33;25.20;99.90
20658;DHT22;10488;50.846;4.078;2022-09-06T09:14:29;25.80;99.90
20658;DHT22;10488;50.846;4.078;2022-09-06T09:17:04;25.60;99.90
20658;DHT22;10488;50.846;4.078;2022-09-06T09:19:30;25.90;99.90
20658;DHT22;10488;50.846;4.078;2022-09-06T09:22:01;25.80;99.90
20658;DHT22;10488;50.846;4.078;2022-09-06T09:24:26;25.50;99.90
20658;DHT22;10488;50.846;4.078;2022-09-06T09:27:07;25.30;99.90
20658;DHT22;10488;50.846;4.078;2022-09-06T09:32:33;25.30;99.90
20658;DHT22;10488;50.846;4.078;2022-09-06T09:35:36;25.50;99.90
20658;DHT22;10488;50.846;4.078;2022-09-06T09:38:05;25.40;99.90
20658;DHT22;10488;50.846;4.078;2022-09-06T09:40:37;25.30;99.90
20658;DHT22;10488;50.846;4.078;2022-09-06T09:45:45;25.40;99.90
20658;DHT22;10488;50.846;4.078;2022-09-06T09:48:18;25.50;99.90
20658;DHT22;10488;50.846;4.078;2022-09-06T09:50:44;25.70;99.90
20658;DHT22;10488;50.846;4.078;2022-09-06T09:53:12;25.20;99.90
20658;DHT22;10488;50.846;4.078;2022-09-06T09:55:39;25.50;99.90
20658;DHT22;10488;50.846;4.078;2022-09-06T09:58:06;25.40;99.90
20658;DHT22;10488;50.846;4.078;2022-09-06T10:00:40;25.60;99.90
20658;DHT22;10488;50.846;4.078;2022-09-06T10:03:28;25.60;99.90
20658;DHT22;10488;50.846;4.078;2022-09-06T10:05:56;25.70;99.90
20658;DHT22;10488;50.846;4.078;2022-09-06T10:08:24;26.00;99.90
20658;DHT22;10488;50.846;4.078;2022-09-06T10:10:50;26.20;99.90
20658;DHT22;10488;50.846;4.078;2022-09-06T10:13:23;26.00;99.90
20658;DHT22;10488;50.846;4.078;2022-09-06T10:15:52;25.90;99.90
20658;DHT22;10488;50.846;4.078;2022-09-06T10:18:33;25.90;99.90
20658;DHT22;10488;50.846;4.078;2022-09-06T10:21:15;25.70;99.90
20658;DHT22;10488;50.846;4.078;2022-09-06T10:24:01;25.90;99.90
20658;DHT22;10488;50.846;4.078;2022-09-06T10:29:08;26.30;99.90
20658;DHT22;10488;50.846;4.078;2022-09-06T10:37:05;26.10;99.90
20658;DHT22;10488;50.846;4.078;2022-09-06T10:42:29;26.30;99.90
20658;DHT22;10488;50.846;4.078;2022-09-06T10:45:15;26.50;99.90
20658;DHT22;10488;50.846;4.078;2022-09-06T10:47:58;26.70;99.90
20658;DHT22;10488;50.846;4.078;2022-09-06T10:53:06;26.50;99.90
20658;DHT22;10488;50.846;4.078;2022-09-06T10:55:35;26.80;99.90
20658;DHT22;10488;50.846;4.078;2022-09-06T10:58:04;26.90;99.90
20658;DHT22;10488;50.846;4.078;2022-09-06T11:00:43;27.00;99.90
20658;DHT22;10488;50.846;4.078;2022-09-06T11:05:51;26.80;99.90
20658;DHT22;10488;50.846;4.078;2022-09-06T11:08:27;27.30;99.90
20658;DHT22;10488;50.846;4.078;2022-09-06T11:10:55;27.00;99.90
20658;DHT22;10488;50.846;4.078;2022-09-06T11:13:26;26.80;99.90
20658;DHT22;10488;50.846;4.078;2022-09-06T11:29:24;27.40;99.90
20658;DHT22;10488;50.846;4.078;2022-09-06T11:31:56;27.40;99.90
20658;DHT22;10488;50.846;4.078;2022-09-06T11:34:25;27.30;99.90
20658;DHT22;10488;50.846;4.078;2022-09-06T11:36:55;27.00;99.90
20658;DHT22;10488;50.846;4.078;2022-09-06T11:39:36;27.30;99.90
20658;DHT22;10488;50.846;4.078;2022-09-06T11:42:07;27.80;99.90
20658;DHT22;10488;50.846;4.078;2022-09-06T11:57:57;27.30;99.90
20658;DHT22;10488;50.846;4.078;2022-09-06T12:00:24;27.60;99.90
20658;DHT22;10488;50.846;4.078;2022-09-06T12:02:51;27.80;99.90
20658;DHT22;10488;50.846;4.078;2022-09-06T12:05:22;27.90;99.90
20658;DHT22;10488;50.846;4.078;2022-09-06T12:10:48;27.70;99.90
20658;DHT22;10488;50.846;4.078;2022-09-06T12:13:38;28.00;99.90
20658;DHT22;10488;50.846;4.078;2022-09-06T12:16:04;28.10;99.90
20658;DHT22;10488;50.846;4.078;2022-09-06T12:21:09;27.20;99.90
20658;DHT22;10488;50.846;4.078;2022-09-06T12:23:54;27.40;99.90
20658;DHT22;10488;50.846;4.078;2022-09-06T12:26:49;27.90;99.90
20658;DHT22;10488;50.846;4.078;2022-09-06T12:29:23;28.30;99.90
20658;DHT22;10488;50.846;4.078;2022-09-06T12:31:51;28.20;99.90
20658;DHT22;10488;50.846;4.078;2022-09-06T12:34:23;28.20;99.90
20658;DHT22;10488;50.846;4.078;2022-09-06T12:37:04;28.20;99.90
20658;DHT22;10488;50.846;4.078;2022-09-06T12:39:32;28.30;99.90
20658;DHT22;10488;50.846;4.078;2022-09-06T12:42:13;28.50;99.90
20658;DHT22;10488;50.846;4.078;2022-09-06T12:44:46;28.60;99.90
20658;DHT22;10488;50.846;4.078;2022-09-06T12:49:44;28.30;99.90
20658;DHT22;10488;50.846;4.078;2022-09-06T12:52:14;28.30;99.90
20658;DHT22;10488;50.846;4.078;2022-09-06T12:54:43;28.20;99.90
20658;DHT22;10488;50.846;4.078;2022-09-06T12:57:18;28.60;99.90
20658;DHT22;10488;50.846;4.078;2022-09-06T12:59:55;28.80;99.90
20658;DHT22;10488;50.846;4.078;2022-09-06T13:02:29;29.00;99.90
20658;DHT22;10488;50.846;4.078;2022-09-06T13:05:06;29.20;99.90
20658;DHT22;10488;50.846;4.078;2022-09-06T13:07:34;29.00;99.90
20658;DHT22;10488;50.846;4.078;2022-09-06T13:10:01;28.80;99.90
20658;DHT22;10488;50.846;4.078;2022-09-06T13:12:33;28.80;99.90
20658;DHT22;10488;50.846;4.078;2022-09-06T13:15:22;29.20;99.90
20658;DHT22;10488;50.846;4.078;2022-09-06T13:17:53;28.70;99.90
20658;DHT22;10488;50.846;4.078;2022-09-06T13:20:28;28.30;99.90
20658;DHT22;10488;50.846;4.078;2022-09-06T13:23:20;28.30;99.90
20658;DHT22;10488;50.846;4.078;2022-09-06T13:25:50;28.40;99.90
20658;DHT22;10488;50.846;4.078;2022-09-06T13:28:31;28.60;99.90
20658;DHT22;10488;50.846;4.078;2022-09-06T13:33:36;28.70;99.90
20658;DHT22;10488;50.846;4.078;2022-09-06T13:36:19;29.10;99.90
20658;DHT22;10488;50.846;4.078;2022-09-06T13:38:45;29.20;99.90
20658;DHT22;10488;50.846;4.078;2022-09-06T13:43:56;28.70;99.90
20658;DHT22;10488;50.846;4.078;2022-09-06T13:46:23;28.40;99.90
20658;DHT22;10488;50.846;4.078;2022-09-06T13:48:48;28.60;99.90
20658;DHT22;10488;50.846;4.078;2022-09-06T13:51:14;28.80;99.90
20658;DHT22;10488;50.846;4.078;2022-09-06T13:53:40;29.20;99.90
20658;DHT22;10488;50.846;4.078;2022-09-06T13:56:06;29.30;99.90
20658;DHT22;10488;50.846;4.078;2022-09-06T13:58:36;29.30;99.90
20658;DHT22;10488;50.846;4.078;2022-09-06T14:01:02;29.10;99.90
20658;DHT22;10488;50.846;4.078;2022-09-06T14:03:30;29.30;99.90
20658;DHT22;10488;50.846;4.078;2022-09-06T14:05:57;29.50;99.90
20658;DHT22;10488;50.846;4.078;2022-09-06T14:08:25;29.00;99.90
20658;DHT22;10488;50.846;4.078;2022-09-06T14:10:51;29.00;99.90
20658;DHT22;10488;50.846;4.078;2022-09-06T14:13:17;29.10;99.90
20658;DHT22;10488;50.846;4.078;2022-09-06T14:15:44;28.90;99.90
20658;DHT22;10488;50.846;4.078;2022-09-06T14:18:10;28.80;99.90
20658;DHT22;10488;50.846;4.078;2022-09-06T14:20:36;28.90;99.90
20658;DHT22;10488;50.846;4.078;2022-09-06T14:23:02;28.80;99.90
20658;DHT22;10488;50.846;4.078;2022-09-06T14:25:27;28.90;99.90
20658;DHT22;10488;50.846;4.078;2022-09-06T14:27:53;28.90;99.90
20658;DHT22;10488;50.846;4.078;2022-09-06T14:30:19;28.90;99.90
20658;DHT22;10488;50.846;4.078;2022-09-06T14:32:44;28.90;99.90
20658;DHT22;10488;50.846;4.078;2022-09-06T14:35:10;27.80;99.90
20658;DHT22;10488;50.846;4.078;2022-09-06T14:37:36;27.80;99.90
20658;DHT22;10488;50.846;4.078;2022-09-06T14:40:03;27.80;99.90
20658;DHT22;10488;50.846;4.078;2022-09-06T14:42:29;27.50;99.90
20658;DHT22;10488;50.846;4.078;2022-09-06T14:44:55;27.60;99.90
20658;DHT22;10488;50.846;4.078;2022-09-06T14:47:20;27.80;99.90
20658;DHT22;10488;50.846;4.078;2022-09-06T14:49:46;27.70;99.90
20658;DHT22;10488;50.846;4.078;2022-09-06T14:52:12;27.60;99.90
20658;DHT22;10488;50.846;4.078;2022-09-06T14:54:38;27.30;99.90
20658;DHT22;10488;50.846;4.078;2022-09-06T14:57:04;26.90;99.90
20658;DHT22;10488;50.846;4.078;2022-09-06T14:59:29;26.90;99.90
20658;DHT22;10488;50.846;4.078;2022-09-06T15:01:55;27.30;99.90
20658;DHT22;10488;50.846;4.078;2022-09-06T15:04:21;27.20;99.90
20658;DHT22;10488;50.846;4.078;2022-09-06T15:06:47;26.80;99.90
20658;DHT22;10488;50.846;4.078;2022-09-06T15:09:14;26.90;99.90
20658;DHT22;10488;50.846;4.078;2022-09-06T15:11:43;26.60;99.90
20658;DHT22;10488;50.846;4.078;2022-09-06T15:14:23;26.40;99.90
20658;DHT22;10488;50.846;4.078;2022-09-06T15:16:49;26.30;99.90
20658;DHT22;10488;50.846;4.078;2022-09-06T15:19:18;26.30;99.90
20658;DHT22;10488;50.846;4.078;2022-09-06T15:21:44;26.10;99.90
20658;DHT22;10488;50.846;4.078;2022-09-06T15:24:12;26.10;99.90
20658;DHT22;10488;50.846;4.078;2022-09-06T15:26:38;26.10;99.90
20658;DHT22;10488;50.846;4.078;2022-09-06T15:29:05;26.10;99.90
20658;DHT22;10488;50.846;4.078;2022-09-06T15:31:32;25.70;99.90
20658;DHT22;10488;50.846;4.078;2022-09-06T15:33:58;25.90;99.90
20658;DHT22;10488;50.846;4.078;2022-09-06T15:36:26;25.80;99.90
20658;DHT22;10488;50.846;4.078;2022-09-06T15:38:52;25.80;99.90
20658;DHT22;10488;50.846;4.078;2022-09-06T15:41:20;25.70;99.90
20658;DHT22;10488;50.846;4.078;2022-09-06T15:43:49;25.70;99.90
20658;DHT22;10488;50.846;4.078;2022-09-06T15:46:17;26.10;99.90
20658;DHT22;10488;50.846;4.078;2022-09-06T15:48:47;26.10;99.90
20658;DHT22;10488;50.846;4.078;2022-09-06T15:51:17;26.10;99.90
20658;DHT22;10488;50.846;4.078;2022-09-06T15:53:43;26.20;99.90
20658;DHT22;10488;50.846;4.078;2022-09-06T15:56:11;26.10;99.90
20658;DHT22;10488;50.846;4.078;2022-09-06T15:58:37;26.20;99.90
20658;DHT22;10488;50.846;4.078;2022-09-06T16:01:10;26.30;99.90
20658;DHT22;10488;50.846;4.078;2022-09-06T16:03:47;26.50;99.90
20658;DHT22;10488;50.846;4.078;2022-09-06T16:06:18;26.80;99.90
20658;DHT22;10488;50.846;4.078;2022-09-06T16:08:45;26.80;99.90
20658;DHT22;10488;50.846;4.078;2022-09-06T16:11:12;26.80;99.90
20658;DHT22;10488;50.846;4.078;2022-09-06T16:13:40;27.10;99.90
20658;DHT22;10488;50.846;4.078;2022-09-06T16:16:08;26.90;99.90
20658;DHT22;10488;50.846;4.078;2022-09-06T16:18:36;26.90;99.90
20658;DHT22;10488;50.846;4.078;2022-09-06T16:21:07;27.00;99.90
20658;DHT22;10488;50.846;4.078;2022-09-06T16:23:34;27.00;99.90
20658;DHT22;10488;50.846;4.078;2022-09-06T16:26:03;27.10;99.90
20658;DHT22;10488;50.846;4.078;2022-09-06T16:28:31;27.10;99.90
20658;DHT22;10488;50.846;4.078;2022-09-06T16:31:01;27.00;99.90
20658;DHT22;10488;50.846;4.078;2022-09-06T16:33:28;26.80;99.90
20658;DHT22;10488;50.846;4.078;2022-09-06T16:35:53;27.00;99.90
20658;DHT22;10488;50.846;4.078;2022-09-06T16:38:19;27.00;99.90
20658;DHT22;10488;50.846;4.078;2022-09-06T16:40:45;26.70;99.90
20658;DHT22;10488;50.846;4.078;2022-09-06T16:43:11;26.50;99.90
20658;DHT22;10488;50.846;4.078;2022-09-06T16:45:37;26.30;99.90
20658;DHT22;10488;50.846;4.078;2022-09-06T16:48:03;26.20;99.90
20658;DHT22;10488;50.846;4.078;2022-09-06T16:50:29;26.20;99.90
20658;DHT22;10488;50.846;4.078;2022-09-06T16:52:54;25.80;99.90
20658;DHT22;10488;50.846;4.078;2022-09-06T16:55:20;25.50;99.90
20658;DHT22;10488;50.846;4.078;2022-09-06T16:57:46;25.30;99.90
20658;DHT22;10488;50.846;4.078;2022-09-06T17:00:12;25.20;99.90
20658;DHT22;10488;50.846;4.078;2022-09-06T17:02:40;25.20;99.90
20658;DHT22;10488;50.846;4.078;2022-09-06T17:05:09;25.30;99.90
20658;DHT22;10488;50.846;4.078;2022-09-06T17:07:35;25.20;99.90
20658;DHT22;10488;50.846;4.078;2022-09-06T17:10:01;25.00;99.90
20658;DHT22;10488;50.846;4.078;2022-09-06T17:12:27;25.20;99.90
20658;DHT22;10488;50.846;4.078;2022-09-06T17:14:54;25.10;99.90
20658;DHT22;10488;50.846;4.078;2022-09-06T17:17:19;25.20;99.90
20658;DHT22;10488;50.846;4.078;2022-09-06T17:19:45;24.80;99.90
20658;DHT22;10488;50.846;4.078;2022-09-06T17:22:11;24.80;99.90
20658;DHT22;10488;50.846;4.078;2022-09-06T17:24:38;24.60;99.90
20658;DHT22;10488;50.846;4.078;2022-09-06T17:27:05;24.50;99.90